Time;durP1;ratioP1;P1;durP2;ratioP2;P2;SDS_P1;SDS_P2;PMS_P1;PMS_P2;Temp;Humidity;BMP_temperature;BMP_pressure;BME280_temperature;BME280_humidity;BME280_pressure;Samples;Min_cycle;Max_cycle;Signal;HPM_P1;HPM_P2
2021/07/29 00:02:15;;;;;;;16.58;13.50;;;25.00;97.20;;;;;;4832477;29;20046;-96
2021/07/29 00:04:51;;;;;;;17.40;14.05;;;25.00;97.30;;;;;;4814439;29;20030;-95
2021/07/29 00:07:24;;;;;;;16.95;14.30;;;25.00;97.30;;;;;;4813044;29;20046;-95
2021/07/29 00:09:49;;;;;;;15.32;12.88;;;24.90;97.30;;;;;;4799685;29;20129;-93
2021/07/29 00:12:28;;;;;;;15.02;13.10;;;25.00;97.30;;;;;;4828829;29;20081;-96
2021/07/29 00:14:58;;;;;;;15.20;13.25;;;25.00;97.30;;;;;;4810234;29;20018;-95
2021/07/29 00:20:44;;;;;;;17.00;14.18;;;25.00;97.30;;;;;;4826558;29;20038;-96
2021/07/29 00:23:17;;;;;;;18.83;15.20;;;25.00;97.30;;;;;;4795725;29;20041;-94
2021/07/29 00:25:52;;;;;;;18.00;14.60;;;25.00;97.30;;;;;;4809231;29;20054;-96
2021/07/29 00:28:40;;;;;;;18.85;15.38;;;25.00;97.30;;;;;;4832174;29;20093;-95
2021/07/29 00:31:16;;;;;;;19.05;15.50;;;25.00;97.30;;;;;;4801382;29;20469;-96
2021/07/29 00:33:53;;;;;;;19.52;16.27;;;25.00;97.30;;;;;;4809489;29;20087;-96
2021/07/29 00:36:35;;;;;;;18.90;16.75;;;25.00;97.30;;;;;;4815472;29;20035;-96
2021/07/29 00:39:07;;;;;;;22.75;17.25;;;25.00;97.30;;;;;;4800698;29;20038;-96
2021/07/29 00:41:37;;;;;;;19.85;16.50;;;24.90;97.30;;;;;;4806039;29;20110;-95
2021/07/29 00:44:07;;;;;;;18.95;16.25;;;25.00;97.40;;;;;;4797447;29;20035;-96
2021/07/29 00:46:53;;;;;;;19.20;16.27;;;25.00;97.40;;;;;;4810444;29;20095;-96
2021/07/29 00:49:29;;;;;;;20.13;16.83;;;25.00;97.40;;;;;;4814331;29;20135;-96
2021/07/29 00:52:18;;;;;;;20.15;16.95;;;24.90;97.40;;;;;;4810861;29;20050;-96
2021/07/29 00:54:47;;;;;;;20.27;16.92;;;25.00;97.40;;;;;;4833270;29;20094;-96
2021/07/29 00:57:23;;;;;;;;;;;;;;;;;;;;;
2021/07/29 00:59:58;;;;;;;20.73;17.65;;;25.00;97.50;;;;;;4832976;29;20090;-96
2021/07/29 01:03:09;;;;;;;;;;;;;;;;;;;;;
2021/07/29 01:05:57;;;;;;;21.48;18.10;;;25.00;97.50;;;;;;4957533;24;20108;-95
2021/07/29 01:09:02;;;;;;;22.60;18.90;;;24.90;97.50;;;;;;4804998;29;20042;-96
2021/07/29 01:11:32;;;;;;;25.10;19.77;;;24.90;97.50;;;;;;4818899;29;20035;-96
2021/07/29 01:14:05;;;;;;;23.63;19.83;;;24.90;97.50;;;;;;4838554;29;20284;-96
2021/07/29 01:17:01;;;;;;;;;;;;;;;;;;;;;
2021/07/29 01:19:38;;;;;;;22.90;19.88;;;25.00;97.50;;;;;;4826944;29;20072;-95
2021/07/29 01:22:17;;;;;;;25.10;20.40;;;25.00;97.50;;;;;;5009592;24;20122;-95
2021/07/29 01:24:53;;;;;;;27.08;21.58;;;24.90;97.50;;;;;;4826518;29;20395;-95
2021/07/29 01:27:46;;;;;;;;;;;;;;;;;;;;;
2021/07/29 01:33:31;;;;;;;29.45;23.38;;;24.90;97.50;;;;;;4845778;24;20069;-96
2021/07/29 01:39:28;;;;;;;29.67;23.58;;;24.90;97.50;;;;;;4808645;29;20102;-96
2021/07/29 01:49:56;;;;;;;30.50;24.15;;;24.90;97.50;;;;;;4836643;29;20065;-94
2021/07/29 01:52:32;;;;;;;29.50;24.63;;;24.90;97.60;;;;;;4804152;29;20188;-95
2021/07/29 01:57:53;;;;;;;29.38;24.25;;;24.90;97.60;;;;;;4816913;29;20042;-96
2021/07/29 02:00:46;;;;;;;;;;;;;;;;;;;;;
2021/07/29 02:03:25;;;;;;;30.77;24.33;;;24.90;97.70;;;;;;4818200;29;20148;-96
2021/07/29 02:05:56;;;;;;;27.95;23.50;;;24.90;97.70;;;;;;4802713;29;20056;-96
2021/07/29 02:08:49;;;;;;;;;;;;;;;;;;;;;
2021/07/29 02:14:07;;;;;;;31.65;26.45;;;24.90;97.70;;;;;;4818968;29;20161;-96
2021/07/29 02:17:08;;;;;;;;;;;;;;;;;;;;;
2021/07/29 02:22:28;;;;;;;30.95;25.35;;;24.90;97.70;;;;;;4810646;29;20073;-96
2021/07/29 02:25:16;;;;;;;;;;;;;;;;;;;;;
2021/07/29 02:28:07;;;;;;;31.98;25.40;;;24.90;97.70;;;;;;4823908;29;20099;-96
2021/07/29 02:30:55;;;;;;;30.90;24.70;;;24.90;97.60;;;;;;4806253;29;20030;-96
2021/07/29 02:33:28;;;;;;;32.33;25.38;;;24.90;97.60;;;;;;4820017;29;20037;-96
2021/07/29 02:36:07;;;;;;;29.35;23.95;;;24.90;97.60;;;;;;4798295;29;20038;-96
2021/07/29 02:38:36;;;;;;;31.83;26.00;;;24.90;97.50;;;;;;4798845;29;20031;-96
2021/07/29 02:41:07;;;;;;;30.20;24.95;;;24.90;97.50;;;;;;4813276;29;20027;-96
2021/07/29 02:43:35;;;;;;;30.30;24.48;;;24.90;97.50;;;;;;4798759;29;20493;-96
2021/07/29 02:46:06;;;;;;;28.65;24.17;;;24.90;97.50;;;;;;4817333;29;20119;-96
2021/07/29 02:48:37;;;;;;;30.73;25.27;;;24.90;97.50;;;;;;4812231;29;20030;-96
2021/07/29 02:51:26;;;;;;;28.27;23.60;;;24.90;97.40;;;;;;4796422;29;20039;-96
2021/07/29 02:54:02;;;;;;;30.70;25.52;;;24.90;97.40;;;;;;4783707;29;20129;-96
2021/07/29 02:56:51;;;;;;;28.75;24.33;;;24.90;97.40;;;;;;4796986;29;20049;-96
2021/07/29 02:59:19;;;;;;;32.00;25.73;;;24.90;97.40;;;;;;4829293;29;20053;-96
2021/07/29 03:02:03;;;;;;;29.00;24.30;;;24.90;97.40;;;;;;4812545;29;20133;-96
2021/07/29 03:04:31;;;;;;;32.72;25.95;;;24.90;97.30;;;;;;4786222;29;20064;-95
2021/07/29 03:07:10;;;;;;;30.60;24.70;;;24.90;97.30;;;;;;4827902;29;20026;-96
2021/07/29 03:09:38;;;;;;;28.38;24.00;;;24.90;97.30;;;;;;4812528;29;20042;-96
2021/07/29 03:12:04;;;;;;;30.75;24.23;;;24.80;97.30;;;;;;4833920;29;20042;-96
2021/07/29 03:14:59;;;;;;;29.65;24.52;;;24.80;97.30;;;;;;4816837;29;20485;-96
2021/07/29 03:17:35;;;;;;;32.80;26.00;;;24.90;97.30;;;;;;4814854;29;20057;-96
2021/07/29 03:20:07;;;;;;;32.40;25.90;;;24.80;97.30;;;;;;4802687;29;20066;-96
2021/07/29 03:22:43;;;;;;;30.25;24.77;;;24.80;97.30;;;;;;4827674;29;20045;-96
2021/07/29 03:25:19;;;;;;;;;;;;;;;;;;;;;
2021/07/29 03:28:09;;;;;;;;;;;;;;;;;;;;;
2021/07/29 03:30:49;;;;;;;;;;;24.80;97.30;;;;;;4824935;29;20079;-96
2021/07/29 03:33:44;;;;;;;;;;;;;;;;;;;;;
2021/07/29 03:36:36;;;;;;;;;;;24.80;97.40;;;;;;4823733;29;20070;-96
2021/07/29 03:39:11;;;;;;;30.95;24.85;;;24.80;97.40;;;;;;4819081;29;19948;-95
2021/07/29 03:41:42;;;;;;;28.80;23.55;;;24.80;97.50;;;;;;4812449;29;20459;-94
2021/07/29 03:44:10;;;;;;;28.60;23.52;;;24.80;97.50;;;;;;4809093;29;20059;-96
2021/07/29 03:46:46;;;;;;;;;;;;;;;;;;;;;
2021/07/29 03:49:32;;;;;;;27.92;22.90;;;24.80;97.30;;;;;;4810365;29;20452;-96
2021/07/29 03:52:16;;;;;;;;;;;;;;;;;;;;;
2021/07/29 03:54:52;;;;;;;;;;;;;;;;;;;;;
2021/07/29 03:57:43;;;;;;;27.05;22.17;;;24.80;97.40;;;;;;4815556;29;20117;-96
2021/07/29 04:00:20;;;;;;;27.58;22.42;;;24.80;97.40;;;;;;4796331;29;20125;-96
2021/07/29 04:03:28;;;;;;;;;;;;;;;;;;;;;
2021/07/29 04:06:17;;;;;;;;;;;;;;;;;;;;;
2021/07/29 04:08:54;;;;;;;27.25;21.50;;;24.80;97.50;;;;;;4811553;29;20201;-95
2021/07/29 04:11:20;;;;;;;24.98;20.83;;;24.80;97.50;;;;;;4780839;29;20068;-96
2021/07/29 04:16:36;;;;;;;23.13;18.90;;;24.80;97.50;;;;;;4802195;29;20050;-96
2021/07/29 04:19:39;;;;;;;22.90;19.75;;;24.80;97.40;;;;;;4793334;29;20068;-96
2021/07/29 04:22:14;;;;;;;24.02;19.50;;;24.80;97.40;;;;;;4793475;29;20585;-96
2021/07/29 04:24:47;;;;;;;23.27;18.70;;;24.80;97.40;;;;;;4793437;29;20129;-96
2021/07/29 04:27:16;;;;;;;23.15;19.05;;;24.80;97.40;;;;;;4808962;29;20099;-96
2021/07/29 04:29:47;;;;;;;21.48;18.73;;;24.80;97.40;;;;;;4808115;29;20047;-96
2021/07/29 04:32:22;;;;;;;22.55;18.90;;;24.80;97.40;;;;;;4794550;29;20042;-96
2021/07/29 04:34:58;;;;;;;23.10;18.75;;;24.80;97.40;;;;;;4795061;29;20042;-96
2021/07/29 04:37:24;;;;;;;22.27;18.85;;;24.80;97.40;;;;;;4809662;29;20041;-96
2021/07/29 04:39:52;;;;;;;22.00;17.70;;;24.80;97.40;;;;;;4813214;29;20035;-95
2021/07/29 04:42:25;;;;;;;19.80;16.85;;;24.80;97.40;;;;;;4811603;29;20046;-95
2021/07/29 04:45:07;;;;;;;22.33;17.48;;;24.80;97.40;;;;;;4810604;29;20038;-95
2021/07/29 04:47:33;;;;;;;21.60;18.05;;;24.80;97.40;;;;;;4804256;29;20042;-96
2021/07/29 04:49:59;;;;;;;19.23;16.63;;;24.80;97.40;;;;;;4797716;29;20035;-94
2021/07/29 04:52:30;;;;;;;20.40;16.45;;;24.80;97.40;;;;;;4810556;29;20035;-95
2021/07/29 04:55:23;;;;;;;;;;;;;;;;;;;;;
2021/07/29 04:57:51;;;;;;;19.45;16.55;;;24.80;97.40;;;;;;4807453;29;20035;-96
2021/07/29 05:00:26;;;;;;;19.55;16.13;;;24.80;97.40;;;;;;4790764;29;20034;-95
2021/07/29 05:02:55;;;;;;;22.30;17.02;;;24.80;97.40;;;;;;4811583;29;20039;-96
2021/07/29 05:05:31;;;;;;;19.88;16.23;;;24.80;97.40;;;;;;4807353;29;20369;-96
2021/07/29 05:08:04;;;;;;;18.80;15.65;;;24.80;97.40;;;;;;4815931;29;20103;-96
2021/07/29 05:10:40;;;;;;;18.08;15.65;;;24.80;97.40;;;;;;4797244;29;20515;-96
2021/07/29 05:13:12;;;;;;;18.70;15.35;;;24.80;97.40;;;;;;4793120;29;20103;-96
2021/07/29 05:15:46;;;;;;;18.35;15.57;;;24.80;97.40;;;;;;4808186;29;20501;-96
2021/07/29 05:18:20;;;;;;;19.42;15.68;;;24.80;97.40;;;;;;4791292;29;20038;-96
2021/07/29 05:20:50;;;;;;;;;;;24.80;97.40;;;;;;4811462;29;20393;-95
2021/07/29 05:23:18;;;;;;;15.95;13.73;;;24.80;97.40;;;;;;4794655;29;19958;-95
2021/07/29 05:26:12;;;;;;;16.02;13.35;;;24.80;97.40;;;;;;4807070;29;20027;-95
2021/07/29 05:31:40;;;;;;;;;;;;;;;;;;;;;
2021/07/29 05:34:28;;;;;;;13.88;11.70;;;24.80;97.50;;;;;;4814218;29;20103;-95
2021/07/29 05:41:27;;;;;;;;;;;;;;;;;;;;;
2021/07/29 05:44:41;;;;;;;;;;;;;;;;;;;;;
2021/07/29 05:47:47;;;;;;;14.75;11.25;;;24.80;97.10;;;;;;4754152;30;20071;-96
2021/07/29 05:51:24;;;;;;;;;;;;;;;;;;;;;
2021/07/29 05:56:59;;;;;;;9.15;6.55;;;24.80;96.60;;;;;;4738575;30;20108;-95
2021/07/29 06:03:02;;;;;;;;;;;;;;;;;;;;;
2021/07/29 06:08:57;;;;;;;5.22;4.30;;;24.80;96.30;;;;;;4806342;29;20100;-96
2021/07/29 06:11:51;;;;;;;5.07;4.07;;;24.80;96.30;;;;;;4787812;29;20096;-96
2021/07/29 06:14:54;;;;;;;4.22;3.50;;;24.80;96.30;;;;;;4771619;30;20048;-95
2021/07/29 06:20:37;;;;;;;3.65;3.10;;;24.80;96.30;;;;;;4768977;30;20100;-93
2021/07/29 06:23:11;;;;;;;3.90;2.67;;;24.80;96.30;;;;;;4792473;29;20066;-94
2021/07/29 06:26:18;;;;;;;2.60;2.05;;;24.80;96.30;;;;;;4797361;29;20108;-96
2021/07/29 06:29:21;;;;;;;3.17;1.98;;;24.80;96.30;;;;;;4795980;29;20137;-93
2021/07/29 06:34:49;;;;;;;3.13;1.85;;;24.80;96.30;;;;;;4797397;29;20046;-94
2021/07/29 06:37:39;;;;;;;3.53;1.63;;;24.80;96.20;;;;;;4795682;29;20038;-94
2021/07/29 06:41:31;;;;;;;;;;;;;;;;;;;;;
2021/07/29 06:44:41;;;;;;;2.35;1.55;;;24.90;96.20;;;;;;4776019;30;20043;-91
2021/07/29 06:47:32;;;;;;;2.38;1.40;;;24.90;96.30;;;;;;4756373;30;20039;-91
2021/07/29 06:50:31;;;;;;;3.25;1.50;;;24.90;96.40;;;;;;4755094;30;20036;-91
2021/07/29 06:53:49;;;;;;;;;;;;;;;;;;;;;
2021/07/29 06:57:15;;;;;;;;;;;;;;;;;;;;;
2021/07/29 07:07:26;;;;;;;;;;;;;;;;;;;;;
2021/07/29 07:17:54;;;;;;;1.23;1.02;;;24.80;95.60;;;;;;4677649;30;20042;-94
2021/07/29 07:23:42;;;;;;;2.13;1.30;;;24.80;95.50;;;;;;4706734;30;20058;-91
2021/07/29 07:26:48;;;;;;;3.10;1.33;;;24.80;95.50;;;;;;4771120;30;20180;-91
2021/07/29 07:33:05;;;;;;;;;;;;;;;;;;;;;
2021/07/29 07:35:38;;;;;;;2.38;1.48;;;24.70;95.60;;;;;;4704376;30;20140;-91
2021/07/29 07:41:33;;;;;;;;;;;;;;;;;;;;;
2021/07/29 07:47:07;;;;;;;1.55;1.00;;;24.60;95.70;;;;;;4801937;29;20039;-91
2021/07/29 07:49:36;;;;;;;1.45;1.10;;;24.60;95.50;;;;;;4792949;29;20162;-90
2021/07/29 07:55:49;;;;;;;1.98;1.20;;;24.60;95.30;;;;;;4813992;29;20491;-94
2021/07/29 07:58:59;;;;;;;2.05;1.40;;;24.60;95.40;;;;;;4815661;29;20042;-93
2021/07/29 08:01:33;;;;;;;2.72;1.30;;;24.60;95.40;;;;;;4826936;29;20038;-94
2021/07/29 08:04:28;;;;;;;2.25;1.10;;;24.60;95.50;;;;;;4813394;29;20030;-94
2021/07/29 08:06:53;;;;;;;;;;;24.60;95.50;;;;;;4820411;29;20046;-94
2021/07/29 08:09:24;;;;;;;1.92;1.13;;;24.60;95.50;;;;;;4792995;29;19909;-94
2021/07/29 08:11:52;;;;;;;2.47;1.05;;;24.60;95.50;;;;;;4792651;29;20039;-93
2021/07/29 08:14:47;;;;;;;1.95;1.15;;;24.60;95.50;;;;;;4808954;29;20062;-94
2021/07/29 08:17:24;;;;;;;2.00;0.90;;;24.60;95.40;;;;;;4787962;29;20049;-94
2021/07/29 08:20:12;;;;;;;1.10;0.80;;;24.60;95.40;;;;;;4791860;29;20050;-94
2021/07/29 08:23:23;;;;;;;1.20;1.10;;;24.60;95.30;;;;;;4806923;29;20137;-94
2021/07/29 08:26:05;;;;;;;1.80;1.10;;;24.70;95.30;;;;;;4791882;29;20062;-95
2021/07/29 08:28:31;;;;;;;1.50;1.10;;;24.70;95.20;;;;;;4791840;29;20100;-95
2021/07/29 08:31:47;;;;;;;;;;;;;;;;;;;;;
2021/07/29 08:34:25;;;;;;;;;;;;;;;;;;;;;
2021/07/29 08:37:33;;;;;;;;;;;;;;;;;;;;;
2021/07/29 08:40:03;;;;;;;1.67;1.40;;;24.70;95.20;;;;;;4815121;29;20099;-93
2021/07/29 08:43:22;;;;;;;2.25;1.70;;;24.70;95.20;;;;;;4807891;29;20516;-95
2021/07/29 08:46:19;;;;;;;;;;;;;;;;;;;;;
2021/07/29 08:49:09;;;;;;;;;;;;;;;;;;;;;
2021/07/29 08:51:59;;;;;;;2.78;2.50;;;24.70;95.10;;;;;;4813856;29;20087;-95
2021/07/29 08:54:46;;;;;;;5.00;3.38;;;24.70;95.10;;;;;;4793123;29;20030;-90
2021/07/29 08:57:48;;;;;;;3.88;3.47;;;24.70;95.00;;;;;;4779691;29;20039;-90
2021/07/29 09:05:00;;;;;;;;;;;;;;;;;;;;;
2021/07/29 09:08:23;;;;;;;10.60;9.00;;;24.70;94.90;;;;;;4722304;30;20036;-90
2021/07/29 09:11:54;;;;;;;9.90;8.23;;;24.70;94.80;;;;;;4752627;30;20055;-89
2021/07/29 09:14:45;;;;;;;9.82;8.70;;;24.70;94.70;;;;;;4786364;29;20038;-90
2021/07/29 09:17:51;;;;;;;;;;;;;;;;;;;;;
2021/07/29 09:20:22;;;;;;;7.80;7.00;;;24.70;94.60;;;;;;4810638;29;20094;-88
2021/07/29 09:22:52;;;;;;;8.25;7.00;;;24.70;94.60;;;;;;4812059;29;20046;-89
2021/07/29 09:26:12;;;;;;;8.35;6.82;;;24.70;94.60;;;;;;4799156;29;20034;-90
2021/07/29 09:32:50;;;;;;;9.73;6.50;;;24.70;94.50;;;;;;4356020;27;21541375;-89
2021/07/29 09:35:29;;;;;;;7.28;6.43;;;24.70;94.50;;;;;;5118424;27;20024;-89
2021/07/29 09:38:09;;;;;;;7.68;6.13;;;24.70;94.50;;;;;;5131574;28;20037;-89
2021/07/29 09:41:09;;;;;;;6.03;5.25;;;24.70;94.60;;;;;;5113183;28;20213;-89
2021/07/29 09:46:37;;;;;;;5.65;4.70;;;24.70;94.50;;;;;;5131785;28;20058;-91
2021/07/29 09:49:12;;;;;;;4.47;4.03;;;24.70;94.50;;;;;;5121536;28;20035;-89
2021/07/29 09:51:42;;;;;;;4.82;3.85;;;24.70;94.50;;;;;;5119357;28;20055;-90
2021/07/29 09:54:10;;;;;;;5.32;4.13;;;24.70;94.50;;;;;;5118383;28;20043;-89
2021/07/29 09:56:56;;;;;;;3.58;3.25;;;24.70;94.50;;;;;;5113261;28;20066;-90
2021/07/29 09:59:34;;;;;;;3.95;3.00;;;24.70;94.50;;;;;;5096728;28;20032;-89
2021/07/29 10:02:06;;;;;;;3.55;2.92;;;24.70;94.50;;;;;;5080765;28;20476;-89
2021/07/29 10:05:10;;;;;;;3.05;2.58;;;24.70;94.50;;;;;;5113138;28;20465;-89
2021/07/29 10:08:06;;;;;;;2.60;2.40;;;24.70;94.40;;;;;;5113184;28;20024;-89
2021/07/29 10:10:52;;;;;;;3.35;2.30;;;24.70;94.40;;;;;;5125570;28;20319;-89
2021/07/29 10:13:35;;;;;;;2.67;1.80;;;24.70;94.40;;;;;;5113173;28;20027;-89
2021/07/29 10:16:11;;;;;;;;;;;;;;;;;;;;;
2021/07/29 10:19:25;;;;;;;2.10;1.90;;;24.70;94.40;;;;;;5100692;28;20110;-90
2021/07/29 10:21:57;;;;;;;2.30;1.95;;;24.70;94.40;;;;;;5112781;28;20084;-91
2021/07/29 10:24:52;;;;;;;2.38;1.92;;;24.70;94.30;;;;;;5112007;28;20434;-90
2021/07/29 10:27:21;;;;;;;2.78;1.80;;;24.70;94.30;;;;;;5113738;28;20083;-89
2021/07/29 10:30:28;;;;;;;;;;;;;;;;;;;;;
2021/07/29 10:33:20;;;;;;;1.40;1.30;;;24.70;94.30;;;;;;5125958;27;20044;-90
2021/07/29 10:36:08;;;;;;;;;;;;;;;;;;;;;
2021/07/29 10:38:52;;;;;;;1.60;1.50;;;24.70;94.20;;;;;;5131842;28;20386;-90
2021/07/29 10:41:50;;;;;;;1.90;1.20;;;24.70;94.30;;;;;;5096018;28;20040;-91
2021/07/29 10:45:03;;;;;;;;;;;;;;;;;;;;;
2021/07/29 10:47:47;;;;;;;1.45;1.10;;;24.70;94.20;;;;;;5117838;28;20022;-90
2021/07/29 10:50:41;;;;;;;2.03;1.42;;;24.70;94.30;;;;;;5099105;28;20039;-90
2021/07/29 10:53:27;;;;;;;1.60;1.10;;;24.70;94.30;;;;;;5082804;28;20028;-89
2021/07/29 10:56:11;;;;;;;;;;;;;;;;;;;;;
2021/07/29 10:59:24;;;;;;;1.20;1.10;;;24.70;94.20;;;;;;5111253;28;20095;-88
2021/07/29 11:02:22;;;;;;;1.98;1.20;;;24.70;94.10;;;;;;5007478;28;20141;-90
2021/07/29 11:05:00;;;;;;;1.25;0.80;;;24.70;94.10;;;;;;5106420;28;20051;-89
2021/07/29 11:07:30;;;;;;;1.38;0.90;;;24.70;94.00;;;;;;5127710;28;20076;-89
2021/07/29 11:10:48;;;;;;;1.08;0.95;;;24.70;94.00;;;;;;5098458;28;20016;-89
2021/07/29 11:13:22;;;;;;;0.93;0.75;;;24.70;94.00;;;;;;5117157;28;20502;-90
2021/07/29 11:15:50;;;;;;;1.63;1.00;;;24.70;94.00;;;;;;5106139;28;20024;-90
2021/07/29 11:18:21;;;;;;;1.25;1.08;;;24.70;93.90;;;;;;5093239;28;20042;-90
2021/07/29 11:20:57;;;;;;;1.17;1.00;;;24.70;93.90;;;;;;5091520;28;20035;-89
2021/07/29 11:23:38;;;;;;;1.58;1.05;;;24.70;93.80;;;;;;5102862;28;20024;-89
2021/07/29 11:26:08;;;;;;;1.17;0.88;;;24.70;93.90;;;;;;5082079;28;20042;-90
2021/07/29 11:28:41;;;;;;;1.27;0.80;;;24.70;93.90;;;;;;5081393;28;20020;-90
2021/07/29 11:31:18;;;;;;;1.67;0.80;;;24.70;93.90;;;;;;5098115;28;20031;-89
2021/07/29 11:34:02;;;;;;;;;;;;;;;;;;;;;
2021/07/29 11:36:38;;;;;;;1.58;0.73;;;24.70;93.90;;;;;;5115245;28;20063;-88
2021/07/29 11:39:13;;;;;;;0.65;0.60;;;24.70;93.90;;;;;;5097074;28;20026;-89
2021/07/29 11:42:11;;;;;;;0.75;0.75;;;24.70;94.00;;;;;;5109940;28;20045;-90
2021/07/29 11:44:47;;;;;;;1.40;0.80;;;24.80;94.00;;;;;;5078777;28;20070;-90
2021/07/29 11:48:05;;;;;;;;;;;;;;;;;;;;;
2021/07/29 11:50:55;;;;;;;1.05;0.88;;;24.80;94.00;;;;;;5119221;28;20059;-89
2021/07/29 11:53:40;;;;;;;1.63;0.80;;;24.70;94.00;;;;;;5105164;28;20039;-89
2021/07/29 11:56:23;;;;;;;0.80;0.80;;;24.70;94.00;;;;;;5105943;28;20024;-90
2021/07/29 11:59:05;;;;;;;1.33;0.93;;;24.70;94.00;;;;;;5109905;28;20038;-90
2021/07/29 12:01:48;;;;;;;1.20;0.70;;;24.70;94.00;;;;;;5083878;28;20031;-88
2021/07/29 12:04:15;;;;;;;1.67;1.13;;;24.70;94.00;;;;;;5095001;28;20445;-89
2021/07/29 12:06:51;;;;;;;1.23;0.90;;;24.70;94.30;;;;;;5097922;28;20054;-89
2021/07/29 12:09:31;;;;;;;1.40;1.00;;;24.70;94.10;;;;;;5099039;28;20023;-89
2021/07/29 12:12:07;;;;;;;1.85;1.05;;;24.70;94.10;;;;;;5083714;28;20044;-89
2021/07/29 12:14:38;;;;;;;1.17;0.75;;;24.70;94.10;;;;;;5114776;28;20135;-87
2021/07/29 12:17:06;;;;;;;2.85;1.38;;;24.70;94.20;;;;;;5095653;28;20118;-89
2021/07/29 12:19:39;;;;;;;1.02;0.80;;;24.70;94.20;;;;;;5097146;28;20072;-88
2021/07/29 12:22:31;;;;;;;1.20;0.80;;;24.70;94.30;;;;;;5096341;28;20028;-89
2021/07/29 12:25:09;;;;;;;1.23;0.90;;;24.80;94.40;;;;;;5097762;28;20024;-90
2021/07/29 12:28:20;;;;;;;;;;;;;;;;;;;;;
2021/07/29 12:31:04;;;;;;;;;;;;;;;;;;;;;
2021/07/29 12:45:56;;;;;;;;;;;;;;;;;;;;;
2021/07/29 12:48:55;;;;;;;0.93;0.80;;;24.80;94.60;;;;;;4995600;28;20686;-94
2021/07/29 13:02:21;;;;;;;1.10;0.77;;;24.80;94.50;;;;;;4938079;28;20035;-95
2021/07/29 13:04:47;;;;;;;0.70;0.70;;;24.80;94.50;;;;;;4988907;28;20072;-87
2021/07/29 13:07:15;;;;;;;0.63;0.52;;;24.80;94.40;;;;;;5051322;28;20099;-88
2021/07/29 13:09:46;;;;;;;1.42;0.80;;;24.80;94.40;;;;;;5050935;28;20043;-87
2021/07/29 13:12:12;;;;;;;0.77;0.70;;;24.80;94.40;;;;;;5035440;28;20114;-87
2021/07/29 13:14:38;;;;;;;0.95;0.68;;;24.80;94.40;;;;;;5053155;28;20167;-89
2021/07/29 13:17:12;;;;;;;1.67;0.85;;;24.80;94.40;;;;;;5051502;28;20190;-91
2021/07/29 13:19:43;;;;;;;1.98;1.17;;;24.80;94.40;;;;;;5036490;28;20556;-92
2021/07/29 13:23:05;;;;;;;;;;;;;;;;;;;;;
2021/07/29 13:25:50;;;;;;;;;;;;;;;;;;;;;
2021/07/29 13:29:10;;;;;;;;;;;;;;;;;;;;;
2021/07/29 13:31:51;;;;;;;;;;;;;;;;;;;;;
2021/07/29 13:38:22;;;;;;;;;;;;;;;;;;;;;
2021/07/29 13:41:16;;;;;;;;;;;;;;;;;;;;;
2021/07/29 13:43:49;;;;;;;1.65;1.38;;;24.90;94.10;;;;;;5037631;28;20033;-90
2021/07/29 13:46:58;;;;;;;2.72;1.35;;;24.90;94.10;;;;;;5019071;28;20460;-92
2021/07/29 13:53:28;;;;;;;;;;;;;;;;;;;;;
2021/07/29 13:56:06;;;;;;;2.63;1.17;;;24.90;94.10;;;;;;5037434;28;20043;-92
2021/07/29 13:59:19;;;;;;;2.38;1.08;;;24.90;94.10;;;;;;5035510;28;20428;-92
2021/07/29 14:02:09;;;;;;;;;;;;;;;;;;;;;
2021/07/29 14:05:31;;;;;;;;;;;;;;;;;;;;;
2021/07/29 14:08:16;;;;;;;;;;;;;;;;;;;;;
2021/07/29 14:11:18;;;;;;;;;;;;;;;;;;;;;
2021/07/29 14:24:43;;;;;;;3.83;1.42;;;25.00;93.90;;;;;;4996870;28;20022;-94
2021/07/29 14:34:51;;;;;;;;;;;;;;;;;;;;;
2021/07/29 14:40:52;;;;;;;2.90;2.00;;;25.00;93.60;;;;;;4925385;29;20044;-92
2021/07/29 14:43:52;;;;;;;4.15;2.08;;;25.00;93.50;;;;;;4945158;29;20039;-92
2021/07/29 16:08:52;;;;;;;2.15;1.83;;;24.90;94.00;;;;;;5057675;28;20345;-91
2021/07/29 16:11:26;;;;;;;2.42;1.70;;;24.90;94.10;;;;;;5064109;28;20044;-92
2021/07/29 16:14:01;;;;;;;2.63;1.63;;;24.90;94.10;;;;;;5055431;28;20021;-92
2021/07/29 16:16:29;;;;;;;2.22;1.63;;;24.90;94.10;;;;;;5056448;28;20017;-92
2021/07/29 16:18:58;;;;;;;1.52;1.30;;;24.90;94.20;;;;;;5056531;28;20111;-93
2021/07/29 16:21:41;;;;;;;1.88;1.60;;;25.00;94.20;;;;;;5057051;28;20063;-92
2021/07/29 16:24:19;;;;;;;;;;;;;;;;;;;;;
2021/07/29 16:26:50;;;;;;;1.52;1.30;;;25.00;94.30;;;;;;5054549;28;20035;-92
2021/07/29 16:29:38;;;;;;;;;;;;;;;;;;;;;
2021/07/29 16:32:13;;;;;;;1.60;1.30;;;25.00;94.40;;;;;;5056783;28;20079;-93
2021/07/29 16:34:42;;;;;;;1.92;1.20;;;25.00;94.40;;;;;;5056854;28;20090;-92
2021/07/29 16:37:08;;;;;;;1.75;1.23;;;25.00;94.40;;;;;;5058441;28;20466;-91
2021/07/29 16:39:42;;;;;;;1.23;1.10;;;25.00;94.50;;;;;;5056735;28;20028;-93
2021/07/29 16:42:08;;;;;;;1.60;1.17;;;25.00;94.50;;;;;;5056191;28;20029;-93
2021/07/29 16:44:41;;;;;;;0.88;0.88;;;25.00;94.50;;;;;;5056372;28;20111;-95
2021/07/29 16:48:09;;;;;;;;;;;;;;;;;;;;;
2021/07/29 16:50:47;;;;;;;1.55;1.40;;;25.00;94.50;;;;;;5066251;28;20037;-92
2021/07/29 16:53:15;;;;;;;1.30;1.00;;;25.00;94.80;;;;;;5043668;28;20056;-88
2021/07/29 16:55:44;;;;;;;1.20;1.10;;;25.00;95.00;;;;;;5055281;28;20033;-89
2021/07/29 16:58:13;;;;;;;1.40;1.30;;;25.00;95.40;;;;;;5055459;28;20029;-89
2021/07/29 17:00:41;;;;;;;1.77;1.10;;;25.00;95.30;;;;;;5040297;28;20044;-89
2021/07/29 17:03:15;;;;;;;1.13;0.93;;;25.00;95.50;;;;;;5055670;28;20024;-89
2021/07/29 17:05:41;;;;;;;1.35;1.10;;;25.00;95.70;;;;;;5039611;28;20063;-89
2021/07/29 17:08:16;;;;;;;1.65;1.02;;;25.00;95.80;;;;;;5055132;28;20024;-89
2021/07/29 17:10:42;;;;;;;1.85;1.38;;;25.00;96.00;;;;;;5055838;28;20032;-90
2021/07/29 17:13:28;;;;;;;1.80;1.20;;;25.00;96.10;;;;;;5055466;28;20031;-89
2021/07/29 17:16:14;;;;;;;1.65;1.33;;;25.00;96.20;;;;;;5039579;28;20035;-90
2021/07/29 17:18:48;;;;;;;1.60;1.30;;;25.00;96.30;;;;;;5058006;28;20025;-90
2021/07/29 17:21:37;;;;;;;1.30;1.20;;;25.00;96.40;;;;;;5065856;28;20025;-90
2021/07/29 17:24:21;;;;;;;;;;;;;;;;;;;;;
2021/07/29 17:27:26;;;;;;;;;;;;;;;;;;;;;
2021/07/29 17:30:08;;;;;;;;;;;;;;;;;;;;;
2021/07/29 17:32:39;;;;;;;2.20;1.40;;;24.90;96.60;;;;;;5060930;28;20167;-90
2021/07/29 17:35:15;;;;;;;;;;;;;;;;;;;;;
2021/07/29 17:38:07;;;;;;;1.40;1.05;;;24.90;96.50;;;;;;5072736;28;20025;-91
2021/07/29 17:40:56;;;;;;;1.40;1.10;;;24.90;96.60;;;;;;5056240;28;20093;-90
2021/07/29 17:43:31;;;;;;;1.52;1.20;;;24.90;96.60;;;;;;5056605;28;20048;-90
2021/07/29 17:46:37;;;;;;;1.83;1.20;;;24.90;96.70;;;;;;5040760;28;20040;-92
2021/07/29 17:49:10;;;;;;;1.38;1.13;;;24.90;96.70;;;;;;5044534;28;20055;-90
2021/07/29 17:51:55;;;;;;;1.33;1.23;;;24.90;96.60;;;;;;5070309;28;20063;-92
2021/07/29 17:54:27;;;;;;;1.45;1.10;;;24.80;96.60;;;;;;5072614;28;20275;-91
2021/07/29 17:56:58;;;;;;;1.30;1.17;;;24.80;96.60;;;;;;5057551;28;20094;-90
2021/07/29 18:00:03;;;;;;;;;;;;;;;;;;;;;
2021/07/29 18:02:32;;;;;;;2.25;1.30;;;24.80;96.60;;;;;;5062786;28;20032;-90
2021/07/29 18:05:32;;;;;;;1.77;1.23;;;24.80;96.60;;;;;;5043400;28;20035;-90
2021/07/29 18:08:23;;;;;;;1.77;1.35;;;24.80;96.60;;;;;;5061972;28;20028;-91
2021/07/29 18:11:38;;;;;;;;;;;;;;;;;;;;;
2021/07/29 18:14:44;;;;;;;1.80;1.40;;;24.80;96.60;;;;;;5091149;28;20371;-93
2021/07/29 18:17:38;;;;;;;1.88;1.50;;;24.80;96.60;;;;;;5077198;28;20040;-92
2021/07/29 18:20:34;;;;;;;2.38;1.40;;;24.80;96.80;;;;;;5043862;28;20045;-91
2021/07/29 18:23:20;;;;;;;;;;;;;;;;;;;;;
2021/07/29 18:33:05;;;;;;;;;;;;;;;;;;;;;
2021/07/29 18:36:00;;;;;;;;;;;;;;;;;;;;;
2021/07/29 18:42:18;;;;;;;2.87;1.83;;;24.80;96.50;;;;;;5080967;28;20036;-92
2021/07/29 18:45:15;;;;;;;;;;;;;;;;;;;;;
2021/07/29 18:48:25;;;;;;;4.10;2.63;;;24.80;96.40;;;;;;5077394;28;20055;-92
2021/07/29 18:51:21;;;;;;;2.55;2.20;;;24.80;96.40;;;;;;5048679;28;20052;-92
2021/07/29 18:54:09;;;;;;;2.35;2.13;;;24.80;96.50;;;;;;5075293;28;20036;-92
2021/07/29 18:57:34;;;;;;;;;;;;;;;;;;;;;
2021/07/29 19:04:33;;;;;;;;;;;;;;;;;;;;;
2021/07/29 19:24:51;;;;;;;;;;;;;;;;;;;;;
2021/07/29 19:31:00;;;;;;;4.45;3.28;;;24.90;96.40;;;;;;4891597;29;20053;-90
2021/07/29 19:33:48;;;;;;;3.90;3.20;;;24.90;96.40;;;;;;4934122;28;21265;-93
2021/07/29 19:36:14;;;;;;;3.65;2.80;;;24.90;96.40;;;;;;4949713;28;20105;-91
2021/07/29 19:38:56;;;;;;;;;;;;;;;;;;;;;
2021/07/29 19:41:27;;;;;;;4.35;3.53;;;24.90;96.50;;;;;;5010657;28;20045;-90
2021/07/29 19:43:54;;;;;;;4.15;3.47;;;24.90;96.80;;;;;;5041494;28;20095;-90
2021/07/29 19:46:37;;;;;;;4.95;3.53;;;24.90;96.80;;;;;;5038138;28;20032;-90
2021/07/29 19:49:03;;;;;;;3.78;3.35;;;24.90;96.90;;;;;;5036647;28;20442;-90
2021/07/29 19:51:32;;;;;;;4.05;3.58;;;24.90;97.10;;;;;;5036884;28;20033;-90
2021/07/29 19:54:03;;;;;;;4.85;3.65;;;24.90;97.20;;;;;;5019708;28;20036;-89
2021/07/29 19:56:35;;;;;;;4.55;3.72;;;24.90;97.30;;;;;;5021970;28;20049;-91
2021/07/29 19:59:13;;;;;;;4.88;4.22;;;24.90;97.40;;;;;;5004833;28;20029;-90
2021/07/29 20:01:43;;;;;;;5.28;4.68;;;24.90;97.40;;;;;;5037869;28;20440;-90